Venez Explorer Les Airs Avec Nous!

Que ce soit pour un vol de découverte, pour apprendre l’arts du pilotage ou pour voyager, venez nous rejoindre.

Information en heures locale pour LFDL
12 December 2019

Metar
LFBI 120730Z AUTO 18009KT 9999 FEW020 SCT029 BKN044 05/04 Q1008 TEMPO 4000 -RA BKN005

Lever du soleil aéronautique : 08:07

Lever du soleil : 08:37

Coucher du soleil : 17:09

Coucher du soleil aéronautique : 17:39

Actualité

Nous sommes heureux d'accueillir un ULM Savannah au sein de notre flotte. Grace à cet appareil, vous pourrez découvrir une …
Bienvenue à tous, l' Aéroclub Loudunais vous accueille sur son nouveau site internet.

Newsletter Sign Up

Praesent libero sed cursus anted dapibus diam
Fermer le menu